createdAt,value
2019-04-21T00:01:55.967Z,43.24
2019-04-21T00:05:45.330Z,43.2
2019-04-21T00:09:52.305Z,43.14
2019-04-21T00:13:47.001Z,43.11
2019-04-21T00:17:29.911Z,43.04
2019-04-21T00:21:12.146Z,42.99
2019-04-21T00:25:01.022Z,42.95
2019-04-21T00:28:59.500Z,42.89
2019-04-21T00:32:55.054Z,42.85
2019-04-21T00:36:42.754Z,42.81
2019-04-21T00:40:46.391Z,42.82
2019-04-21T00:44:44.654Z,42.8
2019-04-21T00:48:45.678Z,42.78
2019-04-21T00:52:51.052Z,42.77
2019-04-21T00:56:56.741Z,42.74
2019-04-21T01:00:32.390Z,42.74
2019-04-21T01:04:42.837Z,42.7
2019-04-21T01:08:51.785Z,42.72
2019-04-21T01:12:49.508Z,42.72
2019-04-21T01:20:16.722Z,42.77
2019-04-21T01:23:48.595Z,42.78
2019-04-21T01:27:31.905Z,42.81
2019-04-21T01:31:40.414Z,42.84
2019-04-21T01:35:43.911Z,42.87
2019-04-21T01:39:51.560Z,42.89
2019-04-21T01:43:50.338Z,42.93
2019-04-21T01:47:49.169Z,42.95
2019-04-21T01:52:02.806Z,43
2019-04-21T01:56:44.488Z,43.04
2019-04-21T02:00:39.099Z,43.09
2019-04-21T02:04:42.931Z,43.17
2019-04-21T02:08:52.540Z,43.23
2019-04-21T02:12:50.914Z,43.29
2019-04-21T02:17:00.643Z,43.34
2019-04-21T02:20:55.376Z,43.42
2019-04-21T02:24:58.025Z,43.48
2019-04-21T02:29:02.048Z,43.56
2019-04-21T02:33:34.483Z,43.63
2019-04-21T02:38:30.727Z,43.72
2019-04-21T02:46:38.170Z,43.89
2019-04-21T02:50:37.599Z,43.98
2019-04-21T02:55:01.236Z,44.07
2019-04-21T02:59:12.484Z,44.17
2019-04-21T03:00:55.521Z,44.2
2019-04-21T03:05:30.517Z,44.32
2019-04-21T03:13:29.835Z,44.56
2019-04-21T03:17:48.750Z,44.68
2019-04-21T03:25:41.735Z,45.09
2019-04-21T03:29:55.100Z,45.34
2019-04-21T03:38:16.757Z,45.79
2019-04-21T03:42:41.694Z,45.96
2019-04-21T03:47:04.432Z,46.1
2019-04-21T03:59:26.412Z,46.36
2019-04-21T04:04:14.971Z,46.43
2019-04-21T04:12:22.594Z,46.51
2019-04-21T04:16:49.059Z,46.53
2019-04-21T04:35:54.280Z,46.56
2019-04-21T04:40:28.137Z,46.54
2019-04-21T04:44:59.728Z,46.55
2019-04-21T04:49:41.474Z,46.52
2019-04-21T04:53:47.380Z,46.49
2019-04-21T04:58:04.752Z,46.47
2019-04-21T05:00:48.336Z,46.46
2019-04-21T05:08:56.009Z,46.38
2019-04-21T05:13:06.475Z,46.35
2019-04-21T05:20:52.261Z,46.24
2019-04-21T05:25:04.588Z,46.21
2019-04-21T05:28:56.806Z,46.16
2019-04-21T05:33:00.093Z,46.11
2019-04-21T05:37:01.359Z,46.05
2019-04-21T05:40:55.204Z,45.99
2019-04-21T05:45:04.341Z,45.94
2019-04-21T05:49:14.160Z,45.87
2019-04-21T05:53:29.515Z,45.82
2019-04-21T05:57:32.383Z,45.73
2019-04-21T06:01:33.074Z,45.67
2019-04-21T06:05:44.605Z,45.58
2019-04-21T06:09:56.899Z,45.53
2019-04-21T06:13:55.451Z,45.43
2019-04-21T06:17:58.126Z,45.35
2019-04-21T06:22:07.731Z,45.26
2019-04-21T06:29:50.103Z,45.1
2019-04-21T06:33:48.877Z,45.02
2019-04-21T06:37:59.873Z,44.93
2019-04-21T06:42:05.675Z,44.83
2019-04-21T06:46:17.830Z,44.72
2019-04-21T06:50:14.578Z,44.63
2019-04-21T06:54:23.496Z,44.5
2019-04-21T07:00:38.430Z,44.34
2019-04-21T07:08:21.718Z,44.11
2019-04-21T07:12:37.122Z,43.97
2019-04-21T07:16:40.466Z,43.83
2019-04-21T07:20:42.311Z,43.72
2019-04-21T07:24:44.508Z,43.58
2019-04-21T07:32:20.939Z,43.34
2019-04-21T07:40:03.688Z,43.06
2019-04-21T07:44:22.847Z,42.91
2019-04-21T07:48:29.700Z,42.76
2019-04-21T07:52:28.236Z,42.6
2019-04-21T07:56:17.844Z,42.46
2019-04-21T08:00:20.608Z,42.3
2019-04-21T08:04:37.875Z,42.14
2019-04-21T08:12:09.851Z,41.8
2019-04-21T08:16:20.058Z,41.64
2019-04-21T08:23:55.352Z,41.31
2019-04-21T08:27:59.808Z,41.13
2019-04-21T08:36:07.675Z,40.82
2019-04-21T08:40:17.663Z,40.57
2019-04-21T08:44:30.005Z,40.37
2019-04-21T08:48:40.419Z,40.14
2019-04-21T08:52:50.939Z,39.96
2019-04-21T08:58:22.702Z,39.72
2019-04-21T09:00:41.681Z,39.63
2019-04-21T09:04:49.932Z,39.51
2019-04-21T09:08:46.192Z,39.44
2019-04-21T09:12:49.140Z,39.36
2019-04-21T09:16:47.656Z,39.27
2019-04-21T09:20:55.371Z,39.2
2019-04-21T09:24:55.960Z,39.12
2019-04-21T09:32:20.357Z,38.98
2019-04-21T09:35:58.869Z,38.91
2019-04-21T09:39:33.283Z,38.85
2019-04-21T09:43:10.327Z,38.79
2019-04-21T09:46:49.746Z,38.78
2019-04-21T09:50:24.324Z,38.72
2019-04-21T09:54:02.030Z,38.66
2019-04-21T09:57:44.753Z,38.6
2019-04-21T10:01:28.257Z,38.53
2019-04-21T10:05:05.331Z,38.51
2019-04-21T10:08:36.378Z,38.48
2019-04-21T10:12:07.511Z,38.47
2019-04-21T10:15:37.757Z,38.41
2019-04-21T10:19:08.877Z,38.34
2019-04-21T10:22:39.357Z,38.26
2019-04-21T10:26:10.476Z,38.22
2019-04-21T10:29:43.137Z,38.19
2019-04-21T10:33:16.568Z,38.14
2019-04-21T10:36:47.062Z,38.12
2019-04-21T10:40:18.006Z,38.09
2019-04-21T10:43:49.326Z,38.07
2019-04-21T10:47:20.653Z,38.09
2019-04-21T10:50:50.775Z,38.11
2019-04-21T10:54:21.886Z,38.14
2019-04-21T10:58:20.313Z,38.21
2019-04-21T11:00:17.555Z,38.25
2019-04-21T11:04:19.975Z,38.33
2019-04-21T11:08:05.967Z,38.4
2019-04-21T11:11:45.001Z,38.47
2019-04-21T11:15:17.181Z,38.51
2019-04-21T11:18:48.299Z,38.53
2019-04-21T11:22:18.923Z,38.54
2019-04-21T11:25:49.546Z,38.58
2019-04-21T11:29:21.127Z,38.61
2019-04-21T11:32:51.310Z,38.68
2019-04-21T11:36:22.471Z,38.75
2019-04-21T11:40:00.329Z,38.82
2019-04-21T11:43:36.953Z,38.9
2019-04-21T11:47:12.153Z,38.98
2019-04-21T11:50:43.338Z,39.08
2019-04-21T11:54:13.482Z,39.13
2019-04-21T11:57:46.359Z,39.25
2019-04-21T12:01:18.659Z,39.38
2019-04-21T12:04:49.520Z,39.45
2019-04-21T12:08:27.398Z,39.51
2019-04-21T12:12:03.418Z,39.59
2019-04-21T12:15:34.641Z,39.67
2019-04-21T12:19:05.218Z,39.68
2019-04-21T12:22:35.733Z,39.66
2019-04-21T12:26:07.395Z,39.62
2019-04-21T12:29:37.859Z,39.57
2019-04-21T12:33:12.285Z,39.53
2019-04-21T12:36:43.720Z,39.49
2019-04-21T12:40:14.758Z,39.47
2019-04-21T12:43:44.932Z,39.45
2019-04-21T12:47:16.175Z,39.42
2019-04-21T12:50:47.831Z,39.37
2019-04-21T12:54:19.533Z,39.32
2019-04-21T12:57:49.754Z,39.24
2019-04-21T13:00:20.707Z,39.18
2019-04-21T13:03:52.125Z,39.05
2019-04-21T13:07:23.482Z,38.97
2019-04-21T13:10:53.951Z,38.84
2019-04-21T13:14:24.209Z,38.73
2019-04-21T13:17:54.386Z,38.59
2019-04-21T13:21:24.487Z,38.46
2019-04-21T13:24:55.593Z,38.36
2019-04-21T13:28:26.060Z,38.25
2019-04-21T13:31:56.300Z,38.18
2019-04-21T13:35:26.733Z,38.07
2019-04-21T13:39:52.249Z,38.02
2019-04-21T13:43:32.991Z,37.95
2019-04-21T13:47:04.770Z,37.92
2019-04-21T13:50:35.290Z,37.94
2019-04-21T13:54:05.489Z,37.95
2019-04-21T13:57:36.600Z,38
2019-04-21T14:01:07.729Z,38.02
2019-04-21T14:04:38.072Z,38.02
2019-04-21T14:08:09.267Z,38.01
2019-04-21T14:11:39.475Z,38.01
2019-04-21T14:15:22.191Z,38.01
2019-04-21T14:18:52.372Z,37.91
2019-04-21T14:22:24.150Z,37.82
2019-04-21T14:25:55.470Z,37.7
2019-04-21T14:29:25.816Z,37.63
2019-04-21T14:32:56.226Z,37.51
2019-04-21T14:36:26.581Z,37.44
2019-04-21T14:40:06.195Z,37.37
2019-04-21T14:43:38.506Z,37.29
2019-04-21T14:47:25.169Z,37.25
2019-04-21T14:51:34.914Z,37.22
2019-04-21T14:55:16.725Z,37.27
2019-04-21T14:58:47.098Z,37.32
2019-04-21T15:00:18.958Z,37.32
2019-04-21T15:03:50.016Z,37.32
2019-04-21T15:07:21.345Z,37.29
2019-04-21T15:10:52.678Z,37.27
2019-04-21T15:14:24.104Z,37.28
2019-04-21T15:17:55.621Z,37.27
2019-04-21T15:21:25.898Z,37.26
2019-04-21T15:24:56.318Z,37.23
2019-04-21T15:28:31.642Z,37.21
2019-04-21T15:32:02.599Z,37.2
2019-04-21T15:35:33.075Z,37.19
2019-04-21T15:39:05.738Z,37.2
2019-04-21T15:42:38.825Z,37.13
2019-04-21T15:46:08.868Z,37.13
2019-04-21T15:50:02.543Z,37.14
2019-04-21T15:53:35.563Z,37.16
2019-04-21T15:57:13.888Z,37.14
2019-04-21T16:00:50.354Z,37.19
2019-04-21T16:04:20.876Z,37.2
2019-04-21T16:07:52.011Z,37.28
2019-04-21T16:11:22.211Z,37.34
2019-04-21T16:14:52.571Z,37.43
2019-04-21T16:18:22.713Z,37.55
2019-04-21T16:21:52.909Z,37.68
2019-04-21T16:25:23.208Z,37.82
2019-04-21T16:28:53.351Z,37.93
2019-04-21T16:32:24.032Z,38.02
2019-04-21T16:35:54.125Z,38.1
2019-04-21T16:39:25.308Z,38.19
2019-04-21T16:42:56.355Z,38.28
2019-04-21T16:46:27.432Z,38.41
2019-04-21T16:49:57.941Z,38.52
2019-04-21T16:53:34.089Z,38.64
2019-04-21T16:57:12.616Z,38.73
2019-04-21T17:00:34.092Z,38.8
2019-04-21T17:04:08.487Z,38.91
2019-04-21T17:07:38.822Z,38.96
2019-04-21T17:11:18.531Z,39.02
2019-04-21T17:15:08.109Z,39.05
2019-04-21T17:18:56.301Z,39.12
2019-04-21T17:22:31.715Z,39.16
2019-04-21T17:26:03.306Z,39.2
2019-04-21T17:29:34.575Z,39.24
2019-04-21T17:33:05.661Z,39.27
2019-04-21T17:36:37.119Z,39.31
2019-04-21T17:40:09.023Z,39.38
2019-04-21T17:43:41.624Z,39.45
2019-04-21T17:47:25.315Z,39.52
2019-04-21T17:51:03.451Z,39.6
2019-04-21T17:54:43.619Z,39.66
2019-04-21T17:58:36.289Z,39.75
2019-04-21T18:02:46.040Z,39.85
2019-04-21T18:07:04.820Z,39.94
2019-04-21T18:10:54.431Z,40.06
2019-04-21T18:14:32.676Z,40.15
2019-04-21T18:18:03.062Z,40.25
2019-04-21T18:21:48.344Z,40.39
2019-04-21T18:25:37.622Z,40.48
2019-04-21T18:29:15.970Z,40.6
2019-04-21T18:32:46.185Z,40.72
2019-04-21T18:36:29.263Z,40.82
2019-04-21T18:40:12.297Z,40.94
2019-04-21T18:44:19.442Z,41.05
2019-04-21T18:48:18.968Z,41.18
2019-04-21T18:52:17.118Z,41.3
2019-04-21T18:56:01.336Z,41.44
2019-04-21T18:59:39.771Z,41.58
2019-04-21T19:00:23.438Z,41.59
2019-04-21T19:04:00.410Z,41.74
2019-04-21T19:07:45.494Z,41.88
2019-04-21T19:11:42.982Z,41.99
2019-04-21T19:15:48.152Z,42.16
2019-04-21T19:20:10.427Z,42.31
2019-04-21T19:24:18.183Z,42.45
2019-04-21T19:28:06.448Z,42.61
2019-04-21T19:32:04.441Z,42.76
2019-04-21T19:35:49.925Z,42.88
2019-04-21T19:39:36.167Z,43
2019-04-21T19:43:37.073Z,43.11
2019-04-21T19:47:45.099Z,43.24
2019-04-21T19:51:41.616Z,43.36
2019-04-21T19:55:20.398Z,43.46
2019-04-21T19:58:50.852Z,43.57
2019-04-21T20:02:22.358Z,43.66
2019-04-21T20:05:59.478Z,43.75
2019-04-21T20:09:56.399Z,43.84
2019-04-21T20:14:13.777Z,43.94
2019-04-21T20:18:22.534Z,44.06
2019-04-21T20:21:58.866Z,44.15
2019-04-21T20:25:30.958Z,44.24
2019-04-21T20:29:21.821Z,44.32
2019-04-21T20:33:42.795Z,44.46
2019-04-21T20:37:42.437Z,44.58
2019-04-21T20:41:40.623Z,44.69
2019-04-21T20:45:45.816Z,44.82
2019-04-21T20:49:38.507Z,44.94
2019-04-21T20:53:37.943Z,45.06
2019-04-21T20:57:29.951Z,45.19
2019-04-21T21:00:45.907Z,45.28
2019-04-21T21:04:37.052Z,45.38
2019-04-21T21:08:31.178Z,45.52
2019-04-21T21:12:41.702Z,45.63
2019-04-21T21:16:47.597Z,45.78
2019-04-21T21:20:49.888Z,45.9
2019-04-21T21:24:50.581Z,46.03
2019-04-21T21:28:52.517Z,46.15
2019-04-21T21:32:51.112Z,46.26
2019-04-21T21:36:47.689Z,46.38
2019-04-21T21:40:36.634Z,46.46
2019-04-21T21:44:17.801Z,46.56
2019-04-21T21:48:04.510Z,46.63
2019-04-21T21:52:01.050Z,46.72
2019-04-21T21:55:40.565Z,46.81
2019-04-21T21:59:16.506Z,46.84
2019-04-21T22:02:56.597Z,46.88
2019-04-21T22:06:39.952Z,46.92
2019-04-21T22:10:17.992Z,46.98
2019-04-21T22:13:55.697Z,47
2019-04-21T22:17:44.695Z,47.03
2019-04-21T22:21:49.359Z,47.05
2019-04-21T22:25:32.024Z,47.06
2019-04-21T22:29:05.607Z,47.08
2019-04-21T22:32:36.860Z,47.06
2019-04-21T22:36:21.046Z,47.1
2019-04-21T22:40:15.716Z,47.1
2019-04-21T22:43:55.227Z,47.09
2019-04-21T22:47:32.194Z,47.11
2019-04-21T22:51:07.342Z,47.12
2019-04-21T22:54:44.860Z,47.12
2019-04-21T22:58:24.810Z,47.12
2019-04-21T23:00:19.197Z,47.15
2019-04-21T23:03:53.618Z,47.13
2019-04-21T23:07:28.600Z,47.15
2019-04-21T23:11:02.746Z,47.16
2019-04-21T23:14:45.256Z,47.15
2019-04-21T23:18:36.056Z,47.17
2019-04-21T23:22:27.585Z,47.16
2019-04-21T23:26:29.832Z,47.15
2019-04-21T23:30:34.410Z,47.18
2019-04-21T23:34:20.890Z,47.19
2019-04-21T23:38:01.404Z,47.2
2019-04-21T23:41:41.425Z,47.2
2019-04-21T23:45:18.347Z,47.19
2019-04-21T23:49:08.556Z,47.2
2019-04-21T23:52:45.721Z,47.2
2019-04-21T23:56:21.655Z,47.2
2019-04-21T23:59:59.638Z,47.21
